McHenry, MD (21541)

9:55 PM EST on December 05, 2016 (GMT -0500)
Garrett College/Deep Creek Lake | | Change Station
Active Advisory: Winter Weather Advisory

Elev 2600 ft 39.56 °N, 79.34 °W | Updated 15 seconds ago

Clear
Clear
28.8 °F
Feels Like 29 °F
N
0.0
Wind Variable Wind from NW
Gusts 3.0 mph

Today
High -- | Low -- °F
--% Chance of Precip.
Yesterday
High -- | Low -- °F
Precip. -- in
Pressure 30.03 in
Visibility 10.0 miles
Clouds Clear
Windchill 29 °F
Dew Point 27 °F
Humidity 93%
Rainfall 0.23 in
Snow Depth Not available.
7:23 AM 4:53 PM
Waxing Crescent, 37% visible
METAR K2G4 060235Z AUTO 13006KT 10SM CLR M01/M02 A3003 RMK AO1
Pressure 30.03 in
Visibility 10.0 miles
Clouds Clear
Windchill 29 °F
Dew Point 27 °F
Humidity 93%
Rainfall 0.23 in
Snow Depth Not available.
7:23 AM 4:53 PM
Waxing Crescent, 37% visible
METAR K2G4 060235Z AUTO 13006KT 10SM CLR M01/M02 A3003 RMK AO1

10-Day Weather Forecast

Almanac

Astronomy

Dec. 05, 2016 Rise Set
Actual Time
Civil Twilight
Nautical Twilight
Astronomical Twilight
Moon
Length of Visible Light
Length of Day
Tomorrow will be .
, % of the Moon is Illuminated

Today's Extremes

State Highs State Lows

Community

WunderPhotos

Upload Photos

1,955,908 photos uploaded!

WunderBlog® & News

Nearby

Air Quality

  Air Quality AQ Index Pollutant
Not available.

Snow Depth

Station Depth Elevation

Earthquake Activity

City Distance Mag. Time & Date
Minimum magnitude displayed is 2.5.

Coastal Water Temperatures

Place Temperature

Stations

Nearby Weather Stations

Station Location Temp. Windchill Dew Point Humidity Wind Precip. Elev Updated Type
                   

Watches & Warnings

Winter Weather Advisory
Issued: 8:16 PM EST Dec. 5, 2016 – National Weather Service

... Winter Weather Advisory remains in effect from 4 am to 10 PM
EST Tuesday...

* hazard types... freezing rain.

* Ice accumulations... one to two tenths of an inch.

* Timing... early Tuesday morning through Tuesday evening.

* Impacts... ice accumulations may create slippery Road
conditions and produce scattered power outages.

* Winds... southeast 10 to 20 mph with gusts up to 40 mph.

Precautionary/preparedness actions...

A Winter Weather Advisory means that freezing rain will cause
travel difficulties. Be prepared for slippery roads and limited
visibilities... and use caution while driving.